Time;durP1;ratioP1;P1;durP2;ratioP2;P2;SDS_P1;SDS_P2;PMS_P1;PMS_P2;Temp;Humidity;BMP_temperature;BMP_pressure;BME280_temperature;BME280_humidity;BME280_pressure;Samples;Min_cycle;Max_cycle;Signal;HPM_P1;HPM_P2
2022/06/15 00:00:33;;;;;;;4.85;1.80;;;;;;;;;;5030492;28;20420;-82
2022/06/15 00:02:58;;;;;;;5.05;1.63;;;;;;;;;;5030038;28;20473;-83
2022/06/15 00:05:24;;;;;;;5.47;1.85;;;;;;;;;;5030569;28;20080;-82
2022/06/15 00:07:49;;;;;;;5.70;1.70;;;;;;;;;;5030695;28;20032;-82
2022/06/15 00:10:15;;;;;;;7.25;1.80;;;;;;;;;;5034420;28;20029;-81
2022/06/15 00:12:40;;;;;;;4.28;1.77;;;;;;;;;;5034090;28;20508;-81
2022/06/15 00:15:07;;;;;;;6.35;1.80;;;;;;;;;;5034240;28;20025;-79
2022/06/15 00:17:32;;;;;;;4.82;1.70;;;;;;;;;;5033642;28;20052;-82
2022/06/15 00:19:58;;;;;;;6.55;1.80;;;;;;;;;;5034231;28;20109;-79
2022/06/15 00:22:23;;;;;;;6.78;1.75;;;;;;;;;;5033737;28;20599;-81
2022/06/15 00:24:49;;;;;;;6.55;2.13;;;;;;;;;;5033031;28;20049;-78
2022/06/15 00:27:14;;;;;;;5.47;1.80;;;;;;;;;;5033820;28;20018;-80
2022/06/15 00:29:39;;;;;;;5.43;1.60;;;;;;;;;;5033970;28;20025;-73
2022/06/15 00:32:07;;;;;;;5.43;1.80;;;;;;;;;;5033631;28;20041;-80
2022/06/15 00:34:32;;;;;;;9.38;1.90;;;;;;;;;;5033866;28;20060;-83
2022/06/15 00:36:58;;;;;;;10.90;2.22;;;;;;;;;;5033537;28;20057;-83
2022/06/15 00:39:23;;;;;;;6.30;1.90;;;;;;;;;;5033507;28;20464;-81
2022/06/15 00:41:49;;;;;;;4.88;1.80;;;;;;;;;;5033327;28;20034;-82
2022/06/15 00:44:26;;;;;;;3.60;1.70;;;;;;;;;;5033874;28;20032;-82
2022/06/15 00:47:01;;;;;;;3.17;1.50;;;;;;;;;;5032178;28;20080;-82
2022/06/15 00:49:35;;;;;;;4.40;1.70;;;;;;;;;;5033449;28;20037;-82
2022/06/15 00:52:12;;;;;;;5.93;1.95;;;;;;;;;;5033044;28;20027;-82
2022/06/15 00:54:39;;;;;;;7.80;1.80;;;;;;;;;;5033264;28;20500;-82
2022/06/15 00:57:05;;;;;;;5.47;1.80;;;;;;;;;;5033089;28;20122;-82
2022/06/15 00:59:56;;;;;;;5.47;1.90;;;;;;;;;;5033194;28;20030;-82
2022/06/15 01:02:22;;;;;;;5.82;1.95;;;;;;;;;;5031899;28;20464;-82
2022/06/15 01:05:10;;;;;;;5.85;1.80;;;;;;;;;;5033430;28;20117;-82
2022/06/15 01:08:17;;;;;;;7.53;1.83;;;;;;;;;;5032320;28;20067;-81
2022/06/15 01:10:43;;;;;;;4.65;2.00;;;;;;;;;;4991092;28;20050;-81
2022/06/15 01:13:36;;;;;;;6.88;1.83;;;;;;;;;;5025773;28;20045;-82
2022/06/15 01:16:33;;;;;;;7.55;2.10;;;;;;;;;;5032835;28;20033;-78
2022/06/15 01:19:13;;;;;;;7.65;2.15;;;;;;;;;;5023730;28;20374;-82
2022/06/15 01:22:01;;;;;;;5.30;1.85;;;;;;;;;;5032789;28;20494;-77
2022/06/15 01:24:46;;;;;;;5.00;1.80;;;;;;;;;;5032631;28;20575;-81
2022/06/15 01:27:43;;;;;;;6.07;1.80;;;;;;;;;;5032655;28;20046;-80
2022/06/15 01:30:45;;;;;;;6.65;1.90;;;;;;;;;;5032772;28;20026;-81
2022/06/15 01:33:24;;;;;;;5.68;1.90;;;;;;;;;;5032143;28;20065;-81
2022/06/15 01:35:55;;;;;;;4.90;1.80;;;;;;;;;;5032532;28;20033;-79
2022/06/15 01:38:49;;;;;;;5.22;1.92;;;;;;;;;;5032302;28;20105;-81
2022/06/15 01:41:17;;;;;;;6.13;1.98;;;;;;;;;;5032322;28;20033;-80
2022/06/15 01:44:01;;;;;;;5.43;1.80;;;;;;;;;;5032388;28;20481;-82
2022/06/15 01:46:27;;;;;;;7.45;2.08;;;;;;;;;;5032600;28;20552;-78
2022/06/15 01:48:56;;;;;;;7.53;1.95;;;;;;;;;;5032337;28;20029;-72
2022/06/15 01:51:30;;;;;;;8.20;2.03;;;;;;;;;;5032246;28;20421;-78
2022/06/15 01:54:04;;;;;;;4.22;1.80;;;;;;;;;;5032135;28;20029;-82
2022/06/15 01:56:35;;;;;;;6.68;2.00;;;;;;;;;;5032451;28;20026;-82
2022/06/15 01:59:14;;;;;;;9.55;2.30;;;;;;;;;;5032097;28;20030;-81
2022/06/15 02:01:51;;;;;;;4.43;1.83;;;;;;;;;;5032583;28;20029;-82
2022/06/15 02:04:27;;;;;;;6.95;1.83;;;;;;;;;;5032187;28;20416;-81
2022/06/15 02:07:17;;;;;;;7.72;2.30;;;;;;;;;;5032157;28;20033;-82
2022/06/15 02:10:00;;;;;;;6.90;2.00;;;;;;;;;;5032045;28;20033;-81
2022/06/15 02:13:04;;;;;;;5.30;2.10;;;;;;;;;;5032000;28;20021;-80
2022/06/15 02:15:30;;;;;;;7.47;1.77;;;;;;;;;;5010971;28;20041;-81
2022/06/15 02:18:03;;;;;;;7.63;1.80;;;;;;;;;;5031623;28;20021;-77
2022/06/15 02:20:33;;;;;;;6.53;2.20;;;;;;;;;;5031931;28;20394;-78
2022/06/15 02:23:02;;;;;;;8.00;1.85;;;;;;;;;;5031838;28;20516;-81
2022/06/15 02:25:32;;;;;;;7.00;1.95;;;;;;;;;;5031664;28;20045;-80
2022/06/15 02:28:00;;;;;;;6.32;2.10;;;;;;;;;;5031088;28;20509;-82
2022/06/15 02:30:26;;;;;;;6.25;2.03;;;;;;;;;;5030830;28;20478;-83
2022/06/15 02:32:52;;;;;;;6.90;2.00;;;;;;;;;;5031042;28;20042;-77
2022/06/15 02:35:19;;;;;;;5.10;2.13;;;;;;;;;;5031834;28;20040;-82
2022/06/15 02:37:47;;;;;;;6.43;2.00;;;;;;;;;;5031315;28;20025;-81
2022/06/15 02:40:15;;;;;;;6.30;1.85;;;;;;;;;;5031240;28;20036;-82
2022/06/15 02:42:41;;;;;;;8.15;2.25;;;;;;;;;;5031731;28;20060;-80
2022/06/15 02:45:14;;;;;;;5.18;2.03;;;;;;;;;;5031039;28;20508;-81
2022/06/15 02:47:41;;;;;;;6.93;2.08;;;;;;;;;;5031014;28;20021;-82
2022/06/15 02:50:09;;;;;;;5.28;2.20;;;;;;;;;;5031009;28;20024;-81
2022/06/15 02:52:40;;;;;;;7.97;2.28;;;;;;;;;;5030668;28;20091;-78
2022/06/15 02:55:08;;;;;;;6.18;2.08;;;;;;;;;;5030939;28;20045;-81
2022/06/15 02:57:52;;;;;;;6.47;2.10;;;;;;;;;;5031144;28;20029;-80
2022/06/15 03:00:21;;;;;;;8.05;2.10;;;;;;;;;;5031129;28;20049;-80
2022/06/15 03:02:47;;;;;;;6.07;1.98;;;;;;;;;;5031297;28;20381;-75
2022/06/15 03:05:12;;;;;;;8.27;1.92;;;;;;;;;;5030619;28;20025;-82
2022/06/15 03:07:38;;;;;;;7.50;2.10;;;;;;;;;;5031092;28;20033;-82
2022/06/15 03:10:04;;;;;;;7.57;2.10;;;;;;;;;;5030501;28;20033;-82
2022/06/15 03:12:29;;;;;;;11.07;2.35;;;;;;;;;;5030866;28;20026;-78
2022/06/15 03:14:55;;;;;;;7.97;2.20;;;;;;;;;;5030805;28;20048;-80
2022/06/15 03:17:21;;;;;;;8.77;2.42;;;;;;;;;;5030838;28;20574;-82
2022/06/15 03:19:46;;;;;;;8.27;2.40;;;;;;;;;;5030553;28;20025;-82
2022/06/15 03:22:11;;;;;;;6.55;2.03;;;;;;;;;;5030658;28;20029;-81
2022/06/15 03:24:37;;;;;;;6.80;2.28;;;;;;;;;;5030558;28;20405;-81
2022/06/15 03:27:02;;;;;;;7.10;2.03;;;;;;;;;;5030755;28;20160;-81
2022/06/15 03:29:28;;;;;;;6.30;2.13;;;;;;;;;;5030587;28;20100;-76
2022/06/15 03:31:54;;;;;;;6.68;2.13;;;;;;;;;;5030820;28;20013;-81
2022/06/15 03:34:19;;;;;;;4.90;2.00;;;;;;;;;;5030432;28;20365;-79
2022/06/15 03:36:45;;;;;;;7.57;2.13;;;;;;;;;;5030653;28;20037;-79
2022/06/15 03:39:10;;;;;;;8.13;2.13;;;;;;;;;;5030037;28;20025;-81
2022/06/15 03:41:36;;;;;;;8.23;2.10;;;;;;;;;;5030452;28;20640;-81
2022/06/15 03:44:01;;;;;;;7.50;2.20;;;;;;;;;;5029995;28;20481;-79
2022/06/15 03:46:29;;;;;;;8.40;2.35;;;;;;;;;;5030439;28;20013;-81
2022/06/15 03:48:54;;;;;;;6.38;2.25;;;;;;;;;;5030101;28;20028;-82
2022/06/15 03:51:20;;;;;;;6.82;2.28;;;;;;;;;;5030257;28;20022;-81
2022/06/15 03:53:45;;;;;;;5.90;2.00;;;;;;;;;;5030174;28;20396;-81
2022/06/15 03:56:11;;;;;;;6.82;2.05;;;;;;;;;;5030258;28;20138;-82
2022/06/15 03:58:37;;;;;;;6.88;2.17;;;;;;;;;;5030028;28;20018;-80
2022/06/15 04:01:02;;;;;;;7.13;2.10;;;;;;;;;;5029977;28;20099;-81
2022/06/15 04:03:28;;;;;;;7.97;2.15;;;;;;;;;;5030086;28;20079;-82
2022/06/15 04:05:57;;;;;;;8.90;2.20;;;;;;;;;;5029847;28;20492;-82
2022/06/15 04:08:40;;;;;;;9.98;2.50;;;;;;;;;;5030218;28;20033;-77
2022/06/15 04:13:58;;;;;;;8.98;2.13;;;;;;;;;;5030167;28;20099;-84
2022/06/15 04:16:24;;;;;;;9.50;2.40;;;;;;;;;;5030429;28;20481;-82
2022/06/15 04:18:50;;;;;;;9.80;2.10;;;;;;;;;;5029935;28;20452;-79
2022/06/15 04:21:15;;;;;;;7.85;2.47;;;;;;;;;;5029669;28;20071;-82
2022/06/15 04:23:40;;;;;;;12.48;2.40;;;;;;;;;;5029943;28;20030;-82
2022/06/15 04:26:06;;;;;;;9.63;2.45;;;;;;;;;;5029650;28;20391;-81
2022/06/15 04:28:33;;;;;;;8.85;2.70;;;;;;;;;;5030048;28;20117;-81
2022/06/15 04:30:59;;;;;;;13.95;2.55;;;;;;;;;;5029853;28;20021;-81
2022/06/15 04:33:27;;;;;;;10.82;2.40;;;;;;;;;;5030418;28;20026;-81
2022/06/15 04:35:53;;;;;;;10.90;2.60;;;;;;;;;;5029826;28;20029;-81
2022/06/15 04:38:18;;;;;;;9.45;2.30;;;;;;;;;;5029918;28;20032;-81
2022/06/15 04:40:44;;;;;;;13.30;2.65;;;;;;;;;;5029166;28;20160;-74
2022/06/15 04:43:09;;;;;;;9.50;2.40;;;;;;;;;;5029730;28;20033;-81
2022/06/15 04:45:36;;;;;;;7.70;2.38;;;;;;;;;;5029462;28;20025;-81
2022/06/15 04:48:01;;;;;;;12.90;2.80;;;;;;;;;;5029758;28;20029;-81
2022/06/15 04:50:28;;;;;;;8.77;2.58;;;;;;;;;;5029557;28;20504;-81
2022/06/15 04:52:54;;;;;;;10.75;2.53;;;;;;;;;;5029729;28;20032;-82
2022/06/15 04:55:21;;;;;;;13.30;3.00;;;;;;;;;;5032585;28;20017;-81
2022/06/15 04:57:48;;;;;;;11.00;2.67;;;;;;;;;;5033111;28;20112;-81
2022/06/15 05:00:17;;;;;;;8.07;2.25;;;;;;;;;;5032519;28;20071;-81
2022/06/15 05:02:43;;;;;;;12.23;2.53;;;;;;;;;;5032926;28;20033;-80
2022/06/15 05:05:08;;;;;;;7.55;2.13;;;;;;;;;;5031598;28;20048;-81
2022/06/15 05:07:34;;;;;;;8.68;2.50;;;;;;;;;;5031687;28;20033;-81
2022/06/15 05:10:00;;;;;;;9.75;2.25;;;;;;;;;;5032574;28;20478;-79
2022/06/15 05:12:26;;;;;;;10.05;2.50;;;;;;;;;;5033037;28;20033;-78
2022/06/15 05:14:51;;;;;;;7.10;2.13;;;;;;;;;;5032752;28;20112;-82
2022/06/15 05:17:22;;;;;;;8.40;2.40;;;;;;;;;;5032748;28;20032;-82
2022/06/15 05:19:48;;;;;;;8.88;2.10;;;;;;;;;;5032258;28;20037;-81
2022/06/15 05:22:14;;;;;;;8.98;2.15;;;;;;;;;;5032371;28;20040;-82
2022/06/15 05:24:39;;;;;;;13.02;2.20;;;;;;;;;;5032187;28;20049;-81
2022/06/15 05:27:05;;;;;;;6.60;2.30;;;;;;;;;;5032719;28;20497;-82
2022/06/15 05:29:33;;;;;;;9.75;2.25;;;;;;;;;;5032813;28;20017;-81
2022/06/15 05:31:58;;;;;;;5.07;2.00;;;;;;;;;;5032645;28;20044;-82
2022/06/15 05:34:24;;;;;;;10.10;2.20;;;;;;;;;;5032600;28;20013;-81
2022/06/15 05:36:50;;;;;;;5.60;2.00;;;;;;;;;;5032155;28;20029;-77
2022/06/15 05:39:15;;;;;;;8.18;2.00;;;;;;;;;;5030838;28;20374;-82
2022/06/15 05:41:41;;;;;;;6.40;2.00;;;;;;;;;;5031963;28;20053;-80
2022/06/15 05:46:34;;;;;;;7.05;2.20;;;;;;;;;;5032172;28;20075;-82
2022/06/15 05:49:03;;;;;;;5.78;2.08;;;;;;;;;;5031002;28;20080;-81
2022/06/15 05:51:29;;;;;;;6.18;2.00;;;;;;;;;;5031955;28;20029;-80
2022/06/15 05:53:55;;;;;;;6.88;2.08;;;;;;;;;;5032233;28;20104;-75
2022/06/15 05:56:21;;;;;;;10.27;1.92;;;;;;;;;;5031814;28;20404;-82
2022/06/15 05:58:47;;;;;;;9.15;2.00;;;;;;;;;;5031948;28;20096;-80
2022/06/15 06:01:28;;;;;;;6.78;1.95;;;;;;;;;;5031346;28;20038;-81
2022/06/15 06:03:54;;;;;;;6.95;2.17;;;;;;;;;;5032088;28;20096;-82
2022/06/15 06:06:20;;;;;;;8.05;2.40;;;;;;;;;;5030333;28;20426;-81
2022/06/15 06:08:46;;;;;;;7.43;2.83;;;;;;;;;;5032053;28;20498;-82
2022/06/15 06:11:11;;;;;;;9.25;2.95;;;;;;;;;;5031547;28;20626;-81
2022/06/15 06:13:36;;;;;;;9.80;2.67;;;;;;;;;;5032137;28;20025;-81
2022/06/15 06:16:02;;;;;;;10.20;2.22;;;;;;;;;;5031586;28;20491;-82
2022/06/15 06:18:27;;;;;;;6.20;1.67;;;;;;;;;;5031480;28;20025;-82
2022/06/15 06:20:53;;;;;;;7.50;2.10;;;;;;;;;;5030734;28;20036;-82
2022/06/15 06:23:19;;;;;;;7.63;2.30;;;;;;;;;;5031624;28;20104;-81
2022/06/15 06:25:50;;;;;;;8.48;2.20;;;;;;;;;;5031224;28;20478;-81
2022/06/15 06:28:38;;;;;;;9.32;2.30;;;;;;;;;;5031730;28;20516;-82
2022/06/15 06:31:05;;;;;;;8.25;2.65;;;;;;;;;;5030990;28;20025;-77
2022/06/15 06:33:33;;;;;;;9.57;2.80;;;;;;;;;;5031337;28;20021;-79
2022/06/15 06:36:03;;;;;;;9.98;3.30;;;;;;;;;;5030968;28;20108;-83
2022/06/15 06:38:28;;;;;;;9.70;2.53;;;;;;;;;;5031225;28;20018;-75
2022/06/15 06:40:55;;;;;;;8.02;2.30;;;;;;;;;;5030875;28;20101;-82
2022/06/15 06:43:21;;;;;;;6.80;2.00;;;;;;;;;;5031399;28;20060;-81
2022/06/15 06:45:47;;;;;;;7.97;2.00;;;;;;;;;;5031133;28;20079;-81
2022/06/15 06:48:13;;;;;;;6.68;2.20;;;;;;;;;;5031030;28;20033;-77
2022/06/15 06:50:40;;;;;;;6.47;2.05;;;;;;;;;;5030741;28;20037;-81
2022/06/15 06:53:06;;;;;;;6.28;1.83;;;;;;;;;;5030908;28;20029;-78
2022/06/15 06:55:32;;;;;;;5.80;2.00;;;;;;;;;;5030850;28;20493;-80
2022/06/15 06:58:00;;;;;;;7.65;2.40;;;;;;;;;;5030602;28;20107;-73
2022/06/15 07:00:27;;;;;;;8.65;2.38;;;;;;;;;;5030728;28;20033;-77
2022/06/15 07:02:52;;;;;;;9.13;2.63;;;;;;;;;;5030710;28;20030;-81
2022/06/15 07:05:18;;;;;;;7.28;2.22;;;;;;;;;;5030863;28;20028;-79
2022/06/15 07:07:44;;;;;;;9.77;2.08;;;;;;;;;;5030632;28;20018;-80
2022/06/15 07:10:10;;;;;;;7.50;2.13;;;;;;;;;;5030440;28;20029;-81
2022/06/15 07:12:37;;;;;;;4.38;1.80;;;;;;;;;;5030320;28;20032;-81
2022/06/15 07:15:06;;;;;;;7.65;2.15;;;;;;;;;;5030737;28;20041;-75
2022/06/15 07:17:31;;;;;;;11.13;2.33;;;;;;;;;;5030070;28;20032;-80
2022/06/15 07:19:57;;;;;;;7.72;2.20;;;;;;;;;;5030343;28;20059;-74
2022/06/15 07:22:22;;;;;;;5.45;2.05;;;;;;;;;;5030257;28;20048;-75
2022/06/15 07:24:49;;;;;;;7.78;2.00;;;;;;;;;;5030255;28;20041;-74
2022/06/15 07:27:15;;;;;;;5.85;1.90;;;;;;;;;;5029980;28;20029;-73
2022/06/15 07:29:43;;;;;;;7.63;2.00;;;;;;;;;;5030176;28;20079;-77
2022/06/15 07:32:09;;;;;;;7.55;2.00;;;;;;;;;;5030141;28;20438;-79
2022/06/15 07:34:35;;;;;;;5.78;1.90;;;;;;;;;;5030273;28;20643;-75
2022/06/15 07:37:00;;;;;;;8.77;2.10;;;;;;;;;;5029989;28;20091;-74
2022/06/15 07:39:30;;;;;;;7.15;2.10;;;;;;;;;;5030485;28;20025;-81
2022/06/15 07:41:56;;;;;;;6.45;2.22;;;;;;;;;;5030036;28;20029;-82
2022/06/15 07:44:23;;;;;;;6.57;2.10;;;;;;;;;;5030344;28;20026;-81
2022/06/15 07:49:53;;;;;;;6.63;1.75;;;;;;;;;;5028768;28;20028;-72
2022/06/15 07:52:18;;;;;;;7.85;2.08;;;;;;;;;;5029967;28;20053;-81
2022/06/15 07:54:44;;;;;;;6.60;2.00;;;;;;;;;;5030110;28;20417;-75
2022/06/15 07:57:09;;;;;;;5.95;1.80;;;;;;;;;;5029890;28;20075;-75
2022/06/15 07:59:35;;;;;;;8.20;2.17;;;;;;;;;;5030285;28;20025;-76
2022/06/15 08:02:00;;;;;;;7.72;2.20;;;;;;;;;;5029661;28;20417;-76
2022/06/15 08:04:25;;;;;;;4.85;2.00;;;;;;;;;;5030101;28;20030;-81
2022/06/15 08:06:51;;;;;;;6.82;2.03;;;;;;;;;;5029655;28;20029;-75
2022/06/15 08:09:17;;;;;;;5.25;2.08;;;;;;;;;;5030007;28;20488;-76
2022/06/15 08:12:11;;;;;;;6.80;1.90;;;;;;;;;;5029612;28;20029;-75
2022/06/15 08:14:32;;;;;;;4.70;1.75;;;;;;;;;;5030271;28;20032;-75
2022/06/15 08:16:59;;;;;;;6.05;2.15;;;;;;;;;;5029567;28;20409;-76
2022/06/15 08:19:25;;;;;;;7.88;2.00;;;;;;;;;;5030136;28;20389;-73
2022/06/15 08:21:50;;;;;;;4.60;1.90;;;;;;;;;;5029594;28;20501;-76
2022/06/15 08:24:16;;;;;;;5.57;2.17;;;;;;;;;;5029890;28;20045;-75
2022/06/15 08:26:43;;;;;;;5.25;2.00;;;;;;;;;;5029948;28;20034;-75
2022/06/15 08:29:11;;;;;;;5.18;1.80;;;;;;;;;;5031383;28;20033;-75
2022/06/15 08:31:37;;;;;;;5.40;1.80;;;;;;;;;;5033855;28;20032;-74
2022/06/15 08:34:03;;;;;;;5.63;2.00;;;;;;;;;;5033982;28;20029;-76
2022/06/15 08:36:30;;;;;;;4.68;1.70;;;;;;;;;;5033896;28;20048;-73
2022/06/15 08:38:56;;;;;;;7.38;2.05;;;;;;;;;;5034090;28;20117;-73
2022/06/15 08:41:33;;;;;;;6.65;2.08;;;;;;;;;;5033719;28;20424;-75
2022/06/15 08:43:58;;;;;;;5.95;1.85;;;;;;;;;;5033949;28;20367;-75
2022/06/15 08:46:39;;;;;;;5.97;1.88;;;;;;;;;;5036042;28;20491;-74
2022/06/15 08:49:19;;;;;;;5.20;1.83;;;;;;;;;;5042608;28;20029;-73
2022/06/15 08:51:45;;;;;;;;;;;;;;;;;;5042251;28;20067;-74
2022/06/15 08:54:53;;;;;;;4.35;1.75;;;;;;;;;;5043615;28;20430;-77
2022/06/15 08:57:24;;;;;;;9.75;1.90;;;;;;;;;;5041807;28;20112;-75
2022/06/15 09:00:02;;;;;;;7.25;1.92;;;;;;;;;;5038332;28;20022;-74
2022/06/15 09:02:58;;;;;;;5.45;1.80;;;;;;;;;;5032526;28;20037;-74
2022/06/15 09:05:23;;;;;;;7.18;2.03;;;;;;;;;;5032784;28;20542;-77
2022/06/15 09:08:27;;;;;;;5.50;1.90;;;;;;;;;;5032860;28;20514;-76
2022/06/15 09:11:11;;;;;;;7.72;1.73;;;;;;;;;;5011654;28;20060;-76
2022/06/15 09:13:54;;;;;;;7.60;1.80;;;;;;;;;;5032977;28;20033;-76
2022/06/15 09:16:43;;;;;;;5.70;1.80;;;;;;;;;;5033198;28;20065;-78
2022/06/15 09:19:20;;;;;;;6.75;1.90;;;;;;;;;;5032848;28;20114;-79
2022/06/15 09:22:00;;;;;;;12.38;2.10;;;;;;;;;;5032516;28;20103;-76
2022/06/15 09:24:38;;;;;;;6.45;1.85;;;;;;;;;;5032955;28;20050;-81
2022/06/15 09:27:14;;;;;;;6.35;1.70;;;;;;;;;;5032974;28;20037;-81
2022/06/15 09:29:47;;;;;;;7.43;1.60;;;;;;;;;;5033152;28;20546;-81
2022/06/15 09:32:14;;;;;;;7.63;1.77;;;;;;;;;;5032589;28;20026;-82
2022/06/15 09:34:43;;;;;;;11.20;1.75;;;;;;;;;;5032612;28;20397;-81
2022/06/15 09:37:13;;;;;;;7.53;1.77;;;;;;;;;;5032595;28;20033;-79
2022/06/15 09:39:38;;;;;;;;;;;;;;;;;;5032892;28;20083;-75
2022/06/15 09:42:07;;;;;;;3.93;1.60;;;;;;;;;;5032477;28;19953;-80
2022/06/15 09:44:50;;;;;;;6.88;1.70;;;;;;;;;;5032281;28;20275;-78
2022/06/15 09:47:15;;;;;;;7.82;1.75;;;;;;;;;;5032585;28;20514;-79
2022/06/15 09:50:09;;;;;;;7.63;1.83;;;;;;;;;;5032249;28;20147;-79
2022/06/15 09:52:37;;;;;;;10.88;2.00;;;;;;;;;;5032157;28;20113;-78
2022/06/15 09:55:07;;;;;;;5.93;1.80;;;;;;;;;;5032427;28;20442;-80
2022/06/15 09:57:35;;;;;;;7.93;2.05;;;;;;;;;;5032310;28;20017;-78
2022/06/15 10:00:03;;;;;;;6.25;2.20;;;;;;;;;;5032002;28;20026;-77
2022/06/15 10:02:33;;;;;;;6.50;1.90;;;;;;;;;;5032085;28;20087;-78
2022/06/15 10:05:00;;;;;;;4.28;1.90;;;;;;;;;;5031937;28;20053;-78
2022/06/15 10:07:34;;;;;;;6.78;1.88;;;;;;;;;;5031972;28;20026;-74
2022/06/15 10:10:21;;;;;;;8.93;2.15;;;;;;;;;;5031748;28;20028;-75
2022/06/15 10:13:05;;;;;;;5.95;1.60;;;;;;;;;;5031635;28;20025;-80
2022/06/15 10:15:40;;;;;;;7.15;1.90;;;;;;;;;;5031840;28;20116;-80
2022/06/15 10:18:27;;;;;;;7.25;1.80;;;;;;;;;;5031658;28;20393;-75
2022/06/15 10:21:13;;;;;;;7.57;1.60;;;;;;;;;;5031326;28;20021;-75
2022/06/15 10:24:14;;;;;;;9.55;1.90;;;;;;;;;;5023939;28;20158;-76
2022/06/15 10:26:41;;;;;;;4.80;1.67;;;;;;;;;;5031531;28;20040;-82
2022/06/15 10:29:15;;;;;;;8.10;1.80;;;;;;;;;;5031300;28;20033;-77
2022/06/15 10:32:03;;;;;;;6.10;1.60;;;;;;;;;;5031379;28;20033;-79
2022/06/15 10:34:32;;;;;;;4.90;1.50;;;;;;;;;;5030034;28;20118;-82
2022/06/15 10:37:06;;;;;;;4.70;1.50;;;;;;;;;;5031405;28;20041;-74
2022/06/15 10:39:35;;;;;;;3.58;1.58;;;;;;;;;;5031161;28;20033;-81
2022/06/15 10:42:24;;;;;;;6.18;1.88;;;;;;;;;;5030969;28;20051;-74
2022/06/15 10:44:55;;;;;;;4.95;1.73;;;;;;;;;;5031146;28;20021;-74
2022/06/15 10:47:24;;;;;;;9.20;2.00;;;;;;;;;;5031194;28;20167;-73
2022/06/15 10:50:00;;;;;;;12.52;1.98;;;;;;;;;;5031235;28;20036;-82
2022/06/15 10:52:37;;;;;;;7.05;1.67;;;;;;;;;;5030509;28;20025;-75
2022/06/15 11:04:23;;;;;;;8.35;1.92;;;;;;;;;;5030657;28;20036;-78
2022/06/15 11:07:06;;;;;;;6.13;1.92;;;;;;;;;;5030803;28;20013;-79
2022/06/15 11:09:37;;;;;;;9.23;1.73;;;;;;;;;;5030643;28;20114;-80
2022/06/15 11:12:23;;;;;;;9.68;2.08;;;;;;;;;;5030668;28;20257;-81
2022/06/15 11:14:56;;;;;;;7.20;1.75;;;;;;;;;;5030712;28;20087;-82
2022/06/15 11:20:28;;;;;;;6.53;1.90;;;;;;;;;;5030851;28;20037;-82
2022/06/15 11:23:02;;;;;;;5.05;1.83;;;;;;;;;;5030588;28;20030;-82
2022/06/15 11:25:39;;;;;;;10.57;1.90;;;;;;;;;;5030402;28;20049;-81
2022/06/15 11:28:09;;;;;;;7.82;1.95;;;;;;;;;;5030741;28;20029;-81
2022/06/15 11:30:39;;;;;;;5.35;1.83;;;;;;;;;;5030470;28;20441;-74
2022/06/15 11:33:18;;;;;;;8.80;2.00;;;;;;;;;;5030431;28;20036;-80
2022/06/15 11:35:56;;;;;;;7.95;1.90;;;;;;;;;;5030038;28;20029;-79
2022/06/15 11:38:44;;;;;;;8.23;1.80;;;;;;;;;;5030318;28;20052;-73
2022/06/15 11:41:15;;;;;;;11.57;2.40;;;;;;;;;;5029811;28;20034;-76
2022/06/15 11:43:46;;;;;;;8.63;2.20;;;;;;;;;;5030438;28;20030;-78
2022/06/15 11:46:33;;;;;;;7.45;2.17;;;;;;;;;;5030567;28;20037;-74
2022/06/15 11:49:22;;;;;;;9.15;2.22;;;;;;;;;;5030369;28;20112;-80
2022/06/15 11:51:51;;;;;;;6.95;2.05;;;;;;;;;;5030267;28;20021;-76
2022/06/15 11:54:30;;;;;;;8.13;1.90;;;;;;;;;;5030017;28;20025;-81
2022/06/15 11:57:09;;;;;;;5.53;1.67;;;;;;;;;;5030230;28;20025;-82
2022/06/15 11:59:47;;;;;;;10.32;2.20;;;;;;;;;;5028751;28;20404;-81
2022/06/15 12:02:31;;;;;;;10.50;2.30;;;;;;;;;;5030124;28;20065;-81
2022/06/15 12:05:16;;;;;;;12.95;2.20;;;;;;;;;;5032877;28;20397;-79
2022/06/15 12:08:10;;;;;;;10.52;2.42;;;;;;;;;;5034335;28;20051;-82
2022/06/15 12:10:47;;;;;;;9.88;2.03;;;;;;;;;;5034104;28;20029;-81
2022/06/15 12:13:19;;;;;;;7.97;2.25;;;;;;;;;;5034271;28;20033;-81
2022/06/15 12:15:55;;;;;;;11.55;2.38;;;;;;;;;;5033902;28;20061;-76
2022/06/15 12:18:48;;;;;;;10.23;2.40;;;;;;;;;;5034190;28;20029;-78
2022/06/15 12:21:25;;;;;;;11.43;2.10;;;;;;;;;;5033572;28;20027;-78
2022/06/15 12:24:09;;;;;;;11.63;2.05;;;;;;;;;;5033859;28;20156;-81
2022/06/15 12:26:53;;;;;;;10.10;1.85;;;;;;;;;;5034165;28;20034;-79
2022/06/15 12:29:20;;;;;;;10.38;2.15;;;;;;;;;;5034223;28;20029;-76
2022/06/15 12:32:13;;;;;;;10.48;2.38;;;;;;;;;;5033958;28;20040;-78
2022/06/15 12:35:04;;;;;;;9.48;2.10;;;;;;;;;;5033725;28;20489;-81
2022/06/15 12:37:33;;;;;;;12.32;2.42;;;;;;;;;;5033056;28;20451;-76
2022/06/15 12:40:55;;;;;;;11.57;2.05;;;;;;;;;;5033305;28;20036;-80
2022/06/15 12:43:29;;;;;;;9.52;2.33;;;;;;;;;;4991413;28;20037;-80
2022/06/15 12:46:02;;;;;;;10.57;2.20;;;;;;;;;;4991264;28;20026;-81
2022/06/15 12:48:57;;;;;;;11.05;2.42;;;;;;;;;;5015168;28;20088;-78
2022/06/15 12:51:39;;;;;;;11.38;2.17;;;;;;;;;;5032930;28;20131;-81
2022/06/15 12:54:17;;;;;;;12.40;2.35;;;;;;;;;;5033317;28;20052;-78
2022/06/15 12:57:06;;;;;;;8.88;2.28;;;;;;;;;;5033124;28;20052;-80
2022/06/15 12:59:49;;;;;;;10.38;2.28;;;;;;;;;;5033120;28;20489;-82
2022/06/15 13:02:59;;;;;;;12.02;2.60;;;;;;;;;;5033086;28;20072;-82
2022/06/15 13:05:28;;;;;;;;;;;;;;;;;;5029104;28;20041;-82
2022/06/15 13:08:12;;;;;;;10.93;2.65;;;;;;;;;;5033363;28;19909;-81
2022/06/15 13:10:57;;;;;;;12.60;2.80;;;;;;;;;;5033181;28;20545;-80
2022/06/15 13:13:28;;;;;;;15.13;2.47;;;;;;;;;;5032632;28;20116;-82
2022/06/15 13:16:00;;;;;;;12.75;2.50;;;;;;;;;;5032078;28;20465;-81
2022/06/15 13:18:53;;;;;;;8.82;2.38;;;;;;;;;;5033170;28;20071;-81
2022/06/15 13:21:24;;;;;;;11.48;2.42;;;;;;;;;;5030610;28;20030;-81
2022/06/15 13:23:52;;;;;;;10.15;2.50;;;;;;;;;;5032496;28;20112;-81
2022/06/15 13:26:46;;;;;;;6.55;2.03;;;;;;;;;;5032733;28;20029;-82
2022/06/15 13:29:11;;;;;;;9.77;2.53;;;;;;;;;;5032606;28;20116;-82
2022/06/15 13:31:51;;;;;;;13.75;2.78;;;;;;;;;;5032487;28;20060;-82
2022/06/15 13:34:34;;;;;;;9.98;2.70;;;;;;;;;;5032745;28;20025;-81
2022/06/15 13:37:14;;;;;;;10.65;2.30;;;;;;;;;;5032071;28;20036;-82
2022/06/15 13:39:43;;;;;;;9.50;2.65;;;;;;;;;;5032729;28;20033;-82
2022/06/15 13:42:30;;;;;;;14.27;2.80;;;;;;;;;;5032287;28;20590;-81
2022/06/15 13:45:33;;;;;;;8.88;2.35;;;;;;;;;;5032768;28;20024;-81
2022/06/15 13:48:40;;;;;;;12.77;2.75;;;;;;;;;;5009295;28;20120;-80
2022/06/15 13:51:14;;;;;;;9.68;2.65;;;;;;;;;;4989858;28;20038;-75
2022/06/15 13:54:02;;;;;;;16.02;2.83;;;;;;;;;;5027273;28;20025;-81
2022/06/15 13:56:45;;;;;;;12.80;2.60;;;;;;;;;;5032045;28;20032;-76
2022/06/15 13:59:14;;;;;;;12.38;2.55;;;;;;;;;;5032157;28;20021;-75
2022/06/15 14:02:11;;;;;;;9.73;2.42;;;;;;;;;;5031852;28;20033;-76
2022/06/15 14:04:48;;;;;;;15.60;2.50;;;;;;;;;;5032280;28;20032;-78
2022/06/15 14:07:31;;;;;;;12.10;2.47;;;;;;;;;;5031784;28;20044;-81
2022/06/15 14:10:08;;;;;;;12.40;2.53;;;;;;;;;;5032001;28;20025;-78
2022/06/15 14:12:52;;;;;;;12.13;2.60;;;;;;;;;;5031368;28;20037;-78
2022/06/15 14:15:46;;;;;;;9.43;2.25;;;;;;;;;;5031765;28;20017;-74
2022/06/15 14:18:33;;;;;;;14.30;2.80;;;;;;;;;;4994572;28;20117;-81
2022/06/15 14:21:18;;;;;;;15.15;2.90;;;;;;;;;;5031604;28;20399;-74
2022/06/15 14:23:44;;;;;;;10.10;2.30;;;;;;;;;;5031708;28;20018;-73
2022/06/15 14:26:11;;;;;;;14.30;2.67;;;;;;;;;;5030304;28;20113;-72
2022/06/15 14:28:38;;;;;;;10.70;2.45;;;;;;;;;;5031324;28;20036;-76
2022/06/15 14:31:12;;;;;;;10.68;2.60;;;;;;;;;;5029865;28;20048;-74
2022/06/15 14:33:38;;;;;;;8.40;2.65;;;;;;;;;;5031149;28;20401;-73
2022/06/15 14:36:15;;;;;;;13.05;2.60;;;;;;;;;;5030982;28;20029;-73
2022/06/15 14:38:44;;;;;;;11.45;2.42;;;;;;;;;;5031371;28;20032;-74
2022/06/15 14:41:13;;;;;;;10.57;2.60;;;;;;;;;;5030935;28;20041;-73
2022/06/15 14:43:39;;;;;;;12.17;2.47;;;;;;;;;;5031270;28;20024;-72
2022/06/15 14:46:05;;;;;;;10.27;2.72;;;;;;;;;;5031130;28;20025;-77
2022/06/15 14:48:38;;;;;;;16.98;2.70;;;;;;;;;;5149432;27;20890;-72
2022/06/15 14:51:13;;;;;;;10.65;2.58;;;;;;;;;;5109765;28;20051;-75
2022/06/15 14:53:47;;;;;;;16.10;2.70;;;;;;;;;;5128280;28;20100;-73
2022/06/15 14:56:13;;;;;;;12.15;2.45;;;;;;;;;;5128371;28;20117;-73
2022/06/15 14:58:38;;;;;;;11.18;2.40;;;;;;;;;;5128693;28;20113;-75
2022/06/15 15:01:10;;;;;;;10.18;2.50;;;;;;;;;;5128441;28;20023;-76
2022/06/15 15:03:37;;;;;;;11.10;2.38;;;;;;;;;;5128414;28;20027;-79
2022/06/15 15:06:15;;;;;;;21.40;3.40;;;;;;;;;;5128070;28;20027;-76
2022/06/15 15:08:44;;;;;;;8.50;2.60;;;;;;;;;;5128138;28;20016;-79
2022/06/15 15:11:11;;;;;;;14.38;2.70;;;;;;;;;;5127975;28;20110;-79
2022/06/15 15:13:40;;;;;;;10.63;2.75;;;;;;;;;;5128121;28;20019;-80
2022/06/15 15:16:27;;;;;;;16.58;2.72;;;;;;;;;;5128326;28;20425;-80
2022/06/15 15:18:57;;;;;;;11.88;3.03;;;;;;;;;;5128468;28;20035;-80
2022/06/15 15:21:27;;;;;;;14.50;3.08;;;;;;;;;;5127857;28;20019;-80
2022/06/15 15:23:56;;;;;;;13.00;2.92;;;;;;;;;;5128168;28;20026;-80
2022/06/15 15:26:33;;;;;;;12.38;2.95;;;;;;;;;;5127652;28;20049;-80
2022/06/15 15:34:31;;;;;;;12.88;2.95;;;;;;;;;;5127989;28;20077;-81
2022/06/15 15:39:44;;;;;;;15.70;3.22;;;;;;;;;;5128528;28;20081;-80
2022/06/15 15:42:13;;;;;;;14.38;3.17;;;;;;;;;;5127872;28;20436;-82